CSUN New Campus Station -PST Time - Most Recent Data on bottom of page




           Date/Time      Avg      Avg      Max     Wind      Avg      Max      Min      Avg      Avg    Total      Avg     Batt
                         Wind     Wind     Wind      Dir     Temp     Temp     Temp       RH      Bar     Rain    Solar     Volt
                      Spd MPH      Dir  Spd MPH   at Max    Deg_F    Deg_F    Deg_F        % Press_mb   Inches     W/m2      Min
--------------------------------------------------------------------------------------------------------------------------------
    10/20/2014 00:00      1.8       76      4.7       71     63.1     63.3     62.8       86     1011     0.00        0     13.4
    10/20/2014 00:15      2.0       90      4.2       83     63.0     63.3     62.8       87     1011     0.00        0     13.4
    10/20/2014 00:30      0.6       15      2.4      347     63.0     63.3     62.8       87     1011     0.00        0     13.3
    10/20/2014 00:45      1.5       20      3.6       14     63.0     63.2     62.8       87     1011     0.00        0     13.3
    10/20/2014 01:00      1.3       59      3.7       40     62.9     63.1     62.8       87     1011     0.00        0     13.3
    10/20/2014 01:15      1.6       75      2.9       50     62.6     62.9     62.3       88     1011     0.00        0     13.3
    10/20/2014 01:30      1.1      100      3.3      336     62.5     62.7     62.3       88     1011     0.00        0     13.4
    10/20/2014 01:45      1.5       14      4.0      324     62.5     62.8     62.0       87     1011     0.00        0     13.3
    10/20/2014 02:00      0.6      101      2.5       82     62.2     62.4     62.0       87     1011     0.00        0     13.3
    10/20/2014 02:15      0.1      272      1.3      259     62.0     62.3     61.7       87     1011     0.00        0     13.4
    10/20/2014 02:30      0.5      232      3.4      245     61.5     61.9     61.2       88     1011     0.00        0     13.4
    10/20/2014 02:45      0.4      283      2.9      265     61.0     61.4     60.7       88     1011     0.00        0     13.4
    10/20/2014 03:00      0.2      294      1.1      292     60.8     60.9     60.6       88     1011     0.00        0     13.4
    10/20/2014 03:15      0.3      303      2.0      296     60.8     61.0     60.6       89     1011     0.00        0     13.4
    10/20/2014 03:30      0.6      316      1.8      339     60.9     61.0     60.6       89     1011     0.00        0     13.4
    10/20/2014 03:45      1.0      287      2.7      283     60.7     61.0     60.3       90     1011     0.00        0     13.4
    10/20/2014 04:00      0.6      253      2.1      246     60.4     60.6     60.1       90     1011     0.00        0     13.4
    10/20/2014 04:15      0.9      209      2.4      206     60.3     60.6     59.9       90     1011     0.00        0     13.4
    10/20/2014 04:30      0.5      233      2.7      275     60.2     60.4     59.9       90     1011     0.00        0     13.4
    10/20/2014 04:45      0.3      219      1.5      147     60.4     60.6     60.2       91     1011     0.00        0     13.4
    10/20/2014 05:00      0.5      274      2.3      254     60.4     60.7     60.2       91     1011     0.00        1     13.4
    10/20/2014 05:15      0.3      317      2.2      336     60.4     60.6     60.2       91     1011     0.00        0     13.4
    10/20/2014 05:30      0.9      330      2.9      340     60.3     60.6     60.0       91     1011     0.00        0     13.4
    10/20/2014 05:45      0.8      311      1.8      309     59.9     60.2     59.7       91     1012     0.00        0     13.4
    10/20/2014 06:00      0.7       50      2.9       61     60.0     60.2     59.7       91     1012     0.00        1     13.4
    10/20/2014 06:15      0.3        4      1.7      316     60.1     60.4     59.8       91     1012     0.00        2     13.4
    10/20/2014 06:30      0.2      259      1.1       84     60.3     60.4     60.0       91     1012     0.00        7     13.4
    10/20/2014 06:45      0.5      346      2.2      348     60.5     60.7     60.1       91     1012     0.00       15     13.4
    10/20/2014 07:00      0.5      279      2.0      289     60.7     60.9     60.4       91     1012     0.00       29     13.4
    10/20/2014 07:15      1.1      290      2.2      242     60.5     60.9     60.2       90     1012     0.00       40     13.4
    10/20/2014 07:30      0.5      310      1.6      293     60.8     61.2     60.4       90     1012     0.00       61     13.3
    10/20/2014 07:45      0.7      280      2.3      264     61.3     61.7     61.0       88     1013     0.00       75     13.3
    10/20/2014 08:00      0.3      262      2.2      243     61.8     62.2     61.4       86     1013     0.00       84     13.3
    10/20/2014 08:15      0.9      253      2.3      229     62.5     62.9     62.0       84     1013     0.00      126     13.3
    10/20/2014 08:30      0.6      145      2.7      169     63.4     64.0     62.6       80     1013     0.00      198     13.3
    10/20/2014 08:45      2.0      130      4.8      158     64.1     64.7     63.7       78     1013     0.00      212     13.3
    10/20/2014 09:00      2.9      161      6.3      154     64.7     65.1     64.3       76     1013     0.00      313     13.3
    10/20/2014 09:15      3.0      151      6.6      162     65.4     65.9     64.8       74     1013     0.00      331     13.3
    10/20/2014 09:30      2.2      231      4.3      170     66.5     67.7     65.2       71     1013     0.00      569     13.2
    10/20/2014 09:45      3.2      162      6.4      145     68.2     68.7     67.2       68     1013     0.00      396     13.2
    10/20/2014 10:00      2.1      225      4.8      188     67.4     68.2     66.7       68     1013     0.00      518     13.2
    10/20/2014 10:15      3.5      153      8.3      171     69.2     69.8     68.0       65     1013     0.00      593     13.2
    10/20/2014 10:30      2.5      133      5.7      100     69.4     70.0     68.8       64     1013     0.00      539     13.2
    10/20/2014 10:45      2.4       88      6.2      157     70.8     71.5     69.8       62     1013     0.00      641     13.1
    10/20/2014 11:00      2.1      169      5.0      134     71.2     71.8     70.8       60     1013     0.00      654     13.1
    10/20/2014 11:15      2.9      179      6.0      164     71.9     72.5     71.0       60     1013     0.00      670     13.1
    10/20/2014 11:30      2.5      193      6.1      153     72.5     73.9     71.5       55     1012     0.00      672     13.1
    10/20/2014 11:45      1.3      105      4.0      144     73.5     74.9     72.8       54     1012     0.00      681     13.1
    10/20/2014 12:00      1.5       80      4.3       55     74.2     74.7     73.6       55     1012     0.00      671     13.1
    10/20/2014 12:15      2.3      110      6.5      141     75.3     76.4     73.9       51     1011     0.00      670     13.1
    10/20/2014 12:30      1.8      122      5.7      132     76.0     76.3     75.5       48     1011     0.00      667     13.1
    10/20/2014 12:45      0.9      102      3.6       87     76.7     77.6     76.1       45     1011     0.00      659     13.1
    10/20/2014 13:00      2.0       87      6.0       90     77.5     78.2     76.7       45     1011     0.00      642     13.1
    10/20/2014 13:15      1.5      189      5.6      163     78.3     79.1     77.2       39     1011     0.00      624     13.1
    10/20/2014 13:30      1.4      194      5.0      123     79.0     79.8     78.5       38     1011     0.00      595     13.1
    10/20/2014 13:45      2.8      152      6.5      192     79.9     80.7     79.2       40     1011     0.00      561     13.0
    10/20/2014 14:00      2.6      133      6.6       96     79.4     80.0     78.7       40     1010     0.00      527     13.0
    10/20/2014 14:15      2.2      112      7.1      148     79.9     80.4     79.5       39     1010     0.00      498     13.0
    10/20/2014 14:30      1.5       36      4.8       98     80.3     80.9     79.8       39     1010     0.00      466     13.0
    10/20/2014 14:45      3.3      123      8.4      126     80.6     81.3     80.0       38     1010     0.00      407     13.0
    10/20/2014 15:00      2.7       82      6.1       75     80.4     80.7     80.0       38     1010     0.00      379     13.0
    10/20/2014 15:15      3.3      141      6.8      141     80.5     81.1     80.0       40     1010     0.00      313     13.0
    10/20/2014 15:30      2.8      118      7.2      140     79.8     81.0     79.0       45     1010     0.00      223     13.1
    10/20/2014 15:45      2.7      133      6.9      149     79.2     79.5     78.9       46     1010     0.00      216     13.1
    10/20/2014 16:00      3.4      145      7.4      141     78.4     79.2     77.7       48     1010     0.00       54     13.1
    10/20/2014 16:15      3.4      171      6.0      162     77.1     77.9     76.7       49     1010     0.00       45     13.1
    10/20/2014 16:30      1.9      217      6.1      255     76.5     77.0     76.1       49     1010     0.00       39     13.1
    10/20/2014 16:45      2.6      257      6.7      256     75.8     76.3     75.2       50     1010     0.00       31     13.2
    10/20/2014 17:00      3.9      267      7.5      237     74.4     75.3     73.6       53     1010     0.00       14     13.2
    10/20/2014 17:15      3.3      279      8.0      255     72.9     73.8     72.1       56     1010     0.00        7     13.2
    10/20/2014 17:30      3.8      260      7.7      254     71.7     72.3     71.3       58     1010     0.00        2     13.2
    10/20/2014 17:45      4.3      261      8.5      253     70.7     71.4     70.1       61     1010     0.00        0     13.2
    10/20/2014 18:00      3.5      259      7.7      254     69.8     70.3     69.3       62     1011     0.00        0     13.2
    10/20/2014 18:15      3.7      265      7.6      244     69.1     69.5     68.6       63     1011     0.00        0     13.3
    10/20/2014 18:30      2.9      248      6.7      244     68.4     68.8     67.9       65     1011     0.00        0     13.3
    10/20/2014 18:45      0.6      230      4.8      260     67.6     68.0     67.0       67     1011     0.00        0     13.3
    10/20/2014 19:00      1.2      225      4.4      209     66.9     67.2     66.7       68     1011     0.00        0     13.3
    10/20/2014 19:15      0.6      271      2.3      261     66.9     67.1     66.7       67     1011     0.00        0     13.3
    10/20/2014 19:30      0.8      277      3.0      251     66.8     67.1     66.4       68     1011     0.00        0     13.3
    10/20/2014 19:45      0.1      282      1.3      237     66.1     66.5     65.6       69     1011     0.00        0     13.3
    10/20/2014 20:00      0.0      288      0.6      288     65.4     65.8     64.8       71     1011     0.00        0     13.3
    10/20/2014 20:15      2.1      174      3.5      185     64.5     65.0     64.0       71     1011     0.00        0     13.3
    10/20/2014 20:30      1.2      168      3.1      181     64.4     64.7     63.9       70     1011     0.00        0     13.3
    10/20/2014 20:45      0.0      179      0.7      194     63.9     64.0     63.6       72     1011     0.00        0     13.3
    10/20/2014 21:00      0.0      285      0.8      286     63.3     63.7     62.8       74     1012     0.00        0     13.4
    10/20/2014 21:15      0.0      288      0.7      291     62.8     63.1     62.5       75     1012     0.00        0     13.4
    10/20/2014 21:30      0.0        0      0.0       27     62.3     62.8     61.9       76     1012     0.00        0     13.4
    10/20/2014 21:45      0.0        0      0.0       46     61.7     62.2     61.3       78     1012     0.00        0     13.4
    10/20/2014 22:00      0.0        0      0.0      137     61.5     61.7     61.2       78     1012     0.00        0     13.4
    10/20/2014 22:15      0.0      105      0.7       97     61.2     61.5     60.9       79     1012     0.00        0     13.4
    10/20/2014 22:30      0.1       84      0.9       82     61.0     61.2     60.8       79     1012     0.00        0     13.4
    10/20/2014 22:45      0.1      297      1.1      295     60.7     60.9     60.4       80     1012     0.00        0     13.4
    10/20/2014 23:00      0.1      293      0.9      292     60.3     60.8     60.0       80     1012     0.00        0     13.4
    10/20/2014 23:15      0.2      328      1.5      334     60.3     60.6     60.0       81     1012     0.00        0     13.4
    10/20/2014 23:30      0.5      316      2.0      319     60.1     60.5     59.8       81     1012     0.00        0     13.4
    10/20/2014 23:45      0.6       40      2.0       33     59.9     60.3     59.6       82     1012     0.00        0     13.4
    10/21/2014 00:00      1.0       37      3.9       37     60.1     60.7     59.7       81     1012     0.00        0     13.4
    10/21/2014 00:15      0.3       14      2.4        5     60.1     60.7     59.7       81     1012     0.00        0     13.4
    10/21/2014 00:30      0.8       52      2.1       33     59.6     59.9     59.4       82     1012     0.00        0     13.4
    10/21/2014 00:45      0.8       51      2.6       51     59.7     60.2     59.4       84     1012     0.00        0     13.4
    10/21/2014 01:00      1.3      118      3.2       76     60.1     60.9     59.4       84     1011     0.00        0     13.4
    10/21/2014 01:15      2.0      176      4.8      148     60.0     60.4     59.5       87     1011     0.00        0     13.4
    10/21/2014 01:30      1.4      119      4.7      155     60.2     60.5     59.8       87     1011     0.00        0     13.4
    10/21/2014 01:45      1.0      150      2.5      154     59.4     59.9     58.9       87     1011     0.00        0     13.4
    10/21/2014 02:00      0.5      249      4.1      255     58.6     59.1     58.0       87     1011     0.00        0     13.4
    10/21/2014 02:15      0.4      183      2.7      175     57.9     58.2     57.6       87     1011     0.00        0     13.4
    10/21/2014 02:30      0.2      311      1.3      317     57.6     57.9     57.3       87     1011     0.00        0     13.4
    10/21/2014 02:45      0.4      222      1.9      317     57.3     57.5     57.0       86     1011     0.00        0     13.4
    10/21/2014 03:00      0.2      239      1.5      178     57.0     57.2     56.7       86     1011     0.00        0     13.4
    10/21/2014 03:15      0.4      176      3.7      141     56.7     57.0     56.4       87     1011     0.00        0     13.5
    10/21/2014 03:30      0.4      197      2.4      152     56.5     56.9     56.2       87     1011     0.00        0     13.5
    10/21/2014 03:45      1.4      266      4.5      248     56.6     57.1     56.1       87     1011     0.00        0     13.4
    10/21/2014 04:00      1.8      255      4.9      258     58.7     60.0     57.0       79     1011     0.00        0     13.4
    10/21/2014 04:15      0.9      124      4.0      136     58.2     59.3     57.5       83     1011     0.00        0     13.4
    10/21/2014 04:30      1.8      198      6.8      253     57.2     57.9     56.8       83     1011     0.00        0     13.4
    10/21/2014 04:45      1.0      248      4.4      252     57.2     57.9     56.6       84     1011     0.00        0     13.5
    10/21/2014 05:00      1.1      204      3.7      187     56.4     56.8     56.1       86     1011     0.00        0     13.4
    10/21/2014 05:15      0.7      141      2.6      102     56.6     56.9     56.3       86     1011     0.00        1     13.5
    10/21/2014 05:30      1.2      128      2.5      132     56.3     56.7     55.9       87     1011     0.00        1     13.5
    10/21/2014 05:45      1.3      129      3.7      151     56.3     56.7     55.8       87     1011     0.00        1     13.5
    10/21/2014 06:00      1.7      142      4.3      152     55.7     56.3     55.0       88     1011     0.00        1     13.5
    10/21/2014 06:15      1.6      156      4.0      147     55.5     55.7     55.2       88     1012     0.00        5     13.5
    10/21/2014 06:30      0.8      163      2.8      197     55.4     55.7     55.1       88     1012     0.00       12     13.5
    10/21/2014 06:45      0.8      153      2.4      197     55.6     56.0     55.3       88     1012     0.00       19     13.5
    10/21/2014 07:00      1.7      172      3.6      174     56.3     56.8     55.6       88     1012     0.00       36     13.5
    10/21/2014 07:15      1.5      208      4.3      261     57.3     58.1     56.7       86     1012     0.00      111     13.4
    10/21/2014 07:30      1.7      229      5.5      255     59.0     60.3     58.0       80     1012     0.00      204     13.4
    10/21/2014 07:45      2.7      252      5.7      256     60.8     61.5     60.0       77     1012     0.00      246     13.4
    10/21/2014 08:00      2.1      232      4.7      194     62.3     63.3     61.2       73     1012     0.00      291     13.4
    10/21/2014 08:15      2.6      222      6.3      206     63.9     64.5     63.0       68     1012     0.00      339     13.3
    10/21/2014 08:30      3.1      203      5.3      181     65.2     65.9     64.4       62     1012     0.00      383     13.3
    10/21/2014 08:45      3.1      180      5.2      174     67.0     67.8     65.6       59     1012     0.00      420     13.3
    10/21/2014 09:00      2.3      168      4.0      186     68.6     69.4     67.5       54     1012     0.00      463     13.2
    10/21/2014 09:15      2.3      184      5.5      196     69.9     70.9     69.3       50     1012     0.00      500     13.2
    10/21/2014 09:30      1.4      207      3.7      209     71.8     72.9     70.6       43     1012     0.00      537     13.2
    10/21/2014 09:45      1.6      201      3.9      218     73.0     73.6     72.5       41     1012     0.00      570     13.2
    10/21/2014 10:00      1.7      151      3.6      148     74.2     75.3     73.2       35     1012     0.00      601     13.1
    10/21/2014 10:15      1.3      142      3.9      285     75.6     76.4     75.2       33     1012     0.00      627     13.1
    10/21/2014 10:30      1.5      200      4.0      176     77.4     78.3     76.1       27     1012     0.00      654     13.1
    10/21/2014 10:45      1.5      162      5.8      186     78.1     79.0     77.2       28     1012     0.00      670     13.1
    10/21/2014 11:00      3.0      213      8.1      209     78.3     79.6     77.4       24     1011     0.00      699     13.1
    10/21/2014 11:15      2.1      194      6.3      138     78.9     79.6     77.8       25     1011     0.00      653     13.1
    10/21/2014 11:30      1.6      119      4.3      183     80.3     80.8     79.5       23     1011     0.00      712     13.1
    10/21/2014 11:45      2.0      116      6.8      153     79.8     80.5     79.0       25     1011     0.00      709     13.1
    10/21/2014 12:00      2.7      164      6.8      171     80.9     81.4     80.4       24     1010     0.00      711     13.1
    10/21/2014 12:15      3.2      198      7.4      164     81.0     81.5     80.6       23     1010     0.00      733     13.1
    10/21/2014 12:30      2.8      219      7.5      205     81.9     82.4     81.2       23     1010     0.00      706     13.1
    10/21/2014 12:45      3.2      190      7.8      187     81.0     81.7     80.3       24     1010     0.00      497     13.1
    10/21/2014 13:00      2.6      196      7.5      174     81.3     81.9     80.7       23     1009     0.00      420     13.1
    10/21/2014 13:15      2.7      207      6.0      261     80.1     81.0     79.4       26     1009     0.00      211     13.1
    10/21/2014 13:30      0.9      166      3.6      171     80.4     82.3     79.2       20     1009     0.00      428     13.1
    10/21/2014 13:45      1.7      148      5.0      176     83.3     84.2     82.3       22     1009     0.00      540     13.1
    10/21/2014 14:00      5.7      158     10.7      148     81.8     84.4     79.0       37     1009     0.00      440     13.1
    10/21/2014 14:15      4.5      156     11.1      130     80.0     80.7     78.9       35     1009     0.00      517     13.1
    10/21/2014 14:30      4.1      118     11.4      152     79.7     80.1     78.7       29     1009     0.00      432     13.1
    10/21/2014 14:45      4.5      250     10.0      253     79.6     80.7     78.5       29     1009     0.00      437     13.1
    10/21/2014 15:00      3.7      261      9.5      263     79.5     80.0     79.0       29     1009     0.00      382     13.1
    10/21/2014 15:15      3.1      255      8.3      252     79.5     80.1     78.9       29     1009     0.00      340     13.1
    10/21/2014 15:30      2.8      252      9.2      253     79.3     79.8     78.9       29     1009     0.00      300     13.1
    10/21/2014 15:45      1.8      236      5.1      236     79.1     79.7     78.3       31     1009     0.00      226     13.1
    10/21/2014 16:00      1.6      258      5.1      241     77.8     78.4     77.5       31     1009     0.00       42     13.1
    10/21/2014 16:15      2.1      216      6.7      184     77.2     77.8     76.7       31     1009     0.00       40     13.1
    10/21/2014 16:30      2.5      233      6.3      188     76.6     76.9     76.4       32     1009     0.00       40     13.2
    10/21/2014 16:45      1.4      260      4.5      245     76.5     76.8     76.2       34     1009     0.00       32     13.2
    10/21/2014 17:00      2.7      273      6.6      253     75.9     76.4     75.1       36     1009     0.00       18     13.2
    10/21/2014 17:15      2.6      284      6.8      301     74.5     75.3     73.7       40     1009     0.00        7     13.2
    10/21/2014 17:30      1.8      283      5.0      289     73.1     73.7     72.5       43     1009     0.00        2     13.2
    10/21/2014 17:45      0.6      293      3.4      283     72.1     72.7     71.5       46     1009     0.00        0     13.2
    10/21/2014 18:00      0.0      301      0.7      303     71.0     71.7     70.4       49     1010     0.00        0     13.2
    10/21/2014 18:15      0.9      191      2.1      180     70.3     70.7     69.9       50     1010     0.00        0     13.3
    10/21/2014 18:30      0.6      150      2.0       58     69.5     70.1     69.1       51     1010     0.00        0     13.3
    10/21/2014 18:45      0.6       65      3.3       51     69.7     70.0     69.4       56     1010     0.00        0     13.3
    10/21/2014 19:00      1.6       67      4.1       69     70.0     70.3     69.5       60     1010     0.00        0     13.3
    10/21/2014 19:15      1.2       88      3.2       98     69.3     69.7     68.8       58     1010     0.00        0     13.3
    10/21/2014 19:30      2.7       59      5.9       38     69.0     69.3     68.8       42     1010     0.00        0     13.3
    10/21/2014 19:45      3.5       47      6.7       44     69.7     70.0     69.3       36     1010     0.00        0     13.3
    10/21/2014 20:00      3.0       37      6.4       50     69.8     70.1     69.5       34     1010     0.00        0     13.3
    10/21/2014 20:15      0.9      327      3.1       32     69.1     70.2     67.7       42     1010     0.00        0     13.3
    10/21/2014 20:30      1.0      310      3.3      303     66.7     67.7     66.1       56     1010     0.00        0     13.3
    10/21/2014 20:45      0.9      302      3.6      292     66.2     66.5     65.8       57     1011     0.00        0     13.3
    10/21/2014 21:00      0.7      328      2.0      341     65.7     65.9     65.3       58     1011     0.00        0     13.3
    10/21/2014 21:15      0.5      321      2.0       36     65.1     65.6     64.5       60     1011     0.00        0     13.3
    10/21/2014 21:30      0.1      360      1.1       80     64.2     64.8     63.5       62     1011     0.00        0     13.3
    10/21/2014 21:45      1.1      279      3.6      294     63.5     64.0     63.0       62     1011     0.00        0     13.4
    10/21/2014 22:00      1.5      162      3.8      125     63.5     64.0     63.0       62     1011     0.00        0     13.4
    10/21/2014 22:15      1.1      122      3.3       83     64.1     64.7     63.6       61     1011     0.00        0     13.4
    10/21/2014 22:30      3.1       43      7.1       48     65.3     67.4     63.8       34     1011     0.00        0     13.4
    10/21/2014 22:45      1.6      276      6.0      263     66.7     68.4     64.6       52     1011     0.00        0     13.3
    10/21/2014 23:00      1.1      297      4.1      264     63.3     64.7     62.3       63     1011     0.00        0     13.4
    10/21/2014 23:15      1.0      331      3.5       88     62.4     62.7     62.1       65     1011     0.00        0     13.4
    10/21/2014 23:30      1.0      168      3.6      262     61.9     62.7     61.3       66     1011     0.00        0     13.4
    10/21/2014 23:45      1.1      294      2.8      342     61.0     61.4     60.8       67     1011     0.00        0     13.4
    10/22/2014 00:00      0.6      310      2.9      350     60.8     61.2     60.4       69     1011     0.00        0     13.4
    10/22/2014 00:15      0.5      314      3.3      286     60.2     60.9     59.6       70     1011     0.00        0     13.4
    10/22/2014 00:30      1.1      292      3.6      284     59.8     60.0     59.5       70     1011     0.00        0     13.4
    10/22/2014 00:45      0.1       18      1.4       49     59.7     60.0     59.5       70     1011     0.00        0     13.4
    10/22/2014 01:00      0.4       59      2.9      111     59.8     60.1     59.6       69     1011     0.00        0     13.4
    10/22/2014 01:15      0.1      237      1.7      266     59.5     60.2     58.9       71     1011     0.00        0     13.4
    10/22/2014 01:30      0.2      289      2.0      270     58.6     59.0     58.0       72     1011     0.00        0     13.4
    10/22/2014 01:45      0.1      292      1.6      304     58.0     58.3     57.6       74     1011     0.00        0     13.4
    10/22/2014 02:00      1.4      299      3.3      291     57.6     58.1     57.2       74     1011     0.00        0     13.4
    10/22/2014 02:15      1.4      322      2.7      339     58.1     58.4     57.8       73     1011     0.00        0     13.4
    10/22/2014 02:30      0.8      325      2.1      335     58.5     58.9     58.2       70     1011     0.00        0     13.4
    10/22/2014 02:45      0.5      249      2.9      256     57.4     58.3     56.9       75     1011     0.00        0     13.4
    10/22/2014 03:00      0.5      209      2.3      190     57.1     57.4     56.9       75     1011     0.00        0     13.5
    10/22/2014 03:15      1.0      275      2.9      294     57.0     57.2     56.7       75     1011     0.00        0     13.4
    10/22/2014 03:30      1.2      210      3.1      149     56.5     57.0     55.6       76     1011     0.00        0     13.5
    10/22/2014 03:45      0.1       80      1.4       90     55.5     55.9     55.2       80     1011     0.00        0     13.5
    10/22/2014 04:00      0.8      324      2.9      343     55.2     55.6     55.0       81     1011     0.00        0     13.5
    10/22/2014 04:15      0.8      325      2.1      289     55.4     55.6     55.2       79     1011     0.00        0     13.5
    10/22/2014 04:30      1.0      329      2.6      312     55.3     55.8     55.0       77     1011     0.00        0     13.5
    10/22/2014 04:45      1.1      342      2.7      319     55.9     56.2     55.6       73     1011     0.00        0     13.5
    10/22/2014 05:00      0.3      344      1.2       80     55.7     56.1     54.8       73     1011     0.00        0     13.5
    10/22/2014 05:15      0.7        0      2.8       74     55.0     55.5     54.7       72     1011     0.00        0     13.5
    10/22/2014 05:30      0.6      313      1.9      334     55.1     55.5     54.8       71     1012     0.00        0     13.5
    10/22/2014 05:45      0.4      347      2.2      331     55.3     55.7     54.8       70     1012     0.00        0     13.5
    10/22/2014 06:00      0.3       55      1.5      330     54.8     55.3     54.2       71     1012     0.00        1     13.5
    10/22/2014 06:15      0.7      333      2.8      331     54.8     55.6     54.2       69     1012     0.00        4     13.5
    10/22/2014 06:30      0.0      326      0.5      326     54.7     55.6     54.0       72     1012     0.00       10     13.5
    10/22/2014 06:45      0.3      334      2.1      333     54.5     55.8     54.0       70     1012     0.00       16     13.5
    10/22/2014 07:00      0.3      352      1.4      350     56.2     56.5     55.6       68     1012     0.00       33     13.5
    10/22/2014 07:15      0.1      252      1.4      275     57.5     59.0     56.4       63     1013     0.00      129     13.5
    10/22/2014 07:30      0.8      203      2.2      178     60.8     62.7     58.9       59     1013     0.00      195     13.4
    10/22/2014 07:45      1.5      177      2.2      182     64.0     65.2     62.7       52     1013     0.00      248     13.4
    10/22/2014 08:00      1.5      181      2.4      185     66.0     66.6     65.2       50     1013     0.00      281     13.3
    10/22/2014 08:15      1.4      187      3.2      168     67.1     67.7     66.1       41     1013     0.00      301     13.3
    10/22/2014 08:30      2.0      211      4.8      198     68.0     68.7     67.3       39     1013     0.00      367     13.3
    10/22/2014 08:45      2.7      172      4.5      206     68.9     69.9     67.9       35     1013     0.00      396     13.2
    10/22/2014 09:00      2.0      145      4.4      162     70.7     71.3     69.7       32     1013     0.00      393     13.2
    10/22/2014 09:15      1.7      174      3.1      157     72.5     73.4     71.2       33     1013     0.00      459     13.2
    10/22/2014 09:30      2.4      161      5.4      181     74.0     74.7     72.5       30     1013     0.00      531     13.2
    10/22/2014 09:45      2.8      166      5.7      152     74.0     74.9     73.3       32     1013     0.00      559     13.1
    10/22/2014 10:00      2.0      154      4.3      143     76.0     77.0     74.5       26     1013     0.00      571     13.1
    10/22/2014 10:15      3.3      163      5.9      174     77.8     78.9     76.9       24     1013     0.00      607     13.1
    10/22/2014 10:30      2.7      142      6.8      145     80.0     81.0     78.2       23     1013     0.00      653     13.1
    10/22/2014 10:45      2.7       95      5.9      132     81.0     81.4     80.3       19     1013     0.00      568     13.1
    10/22/2014 11:00      4.4      148      7.8      149     80.6     81.6     79.8       21     1013     0.00      496     13.1
    10/22/2014 11:15      4.9      153      7.4      161     81.2     81.9     80.6       22     1013     0.00      610     13.1
    10/22/2014 11:30      2.7      126      7.1      167     81.8     83.1     81.1       17     1012     0.00      688     13.1
    10/22/2014 11:45      3.3      164      7.3      164     83.3     84.0     82.7       17     1012     0.00      699     13.1
    10/22/2014 12:00      2.9      148      7.2      155     84.1     84.7     83.4       16     1012     0.00      692     13.1
    10/22/2014 12:15      3.4      158      7.1      157     84.4     85.2     83.8       16     1012     0.00      693     13.1
    10/22/2014 12:30      1.7      153      5.8      163     85.3     85.9     84.3       16     1012     0.00      681     13.0
    10/22/2014 12:45      2.4      132      5.6      147     85.7     86.2     85.2       15     1012     0.00      671     13.0
    10/22/2014 13:00      1.5      155      4.2      177     86.5     88.1     85.7       14     1011     0.00      653     13.0
    10/22/2014 13:15      2.4      163      6.1      177     87.6     88.4     86.9       14     1011     0.00      603     13.0
    10/22/2014 13:30      3.0      159      6.7      170     88.2     89.4     87.2       13     1011     0.00      598     13.0
    10/22/2014 13:45      3.7      181      6.9      163     88.1     88.9     87.3       12     1011     0.00      503     13.0
    10/22/2014 14:00      2.8      166      7.9      199     88.8     89.3     88.2       12     1011     0.00      519     13.0
    10/22/2014 14:15      3.3      158      7.7      169     89.7     90.1     89.1       10     1011     0.00      503     13.0
    10/22/2014 14:30      2.6      169      7.5      149     89.7     90.2     89.3       11     1011     0.00      477     13.0
    10/22/2014 14:45      3.7      175      7.2      162     89.7     90.5     88.9       10     1011     0.00      423     13.0
    10/22/2014 15:00      3.7      164      7.4      168     88.9     89.6     88.5       10     1011     0.00      389     13.0
    10/22/2014 15:15      4.2      200      7.4      194     89.1     89.7     88.6       14     1011     0.00      347     13.0
    10/22/2014 15:30      3.1      255      8.1      257     88.4     89.3     87.5       17     1011     0.00      321     13.0
    10/22/2014 15:45      3.2      282      7.6      278     86.8     87.7     86.2       17     1011     0.00      263     13.0
    10/22/2014 16:00      2.6      260      7.0      255     85.7     86.4     85.0       18     1011     0.00       77     13.0
    10/22/2014 16:15      1.5      229      4.4      257     84.6     85.1     84.1       17     1011     0.00       60     13.1
    10/22/2014 16:30      2.0      110      6.7      115     84.1     84.3     83.7       15     1011     0.00       56     13.1
    10/22/2014 16:45      1.5      132      5.2      149     83.2     83.8     82.5       16     1011     0.00       38     13.1
    10/22/2014 17:00      1.8      174      3.3      161     81.8     82.6     81.3       21     1011     0.00       19     13.1
    10/22/2014 17:15      1.3      148      3.3      138     80.7     81.5     79.9       20     1011     0.00        7     13.1
    10/22/2014 17:30      0.2      324      1.5      354     79.2     80.1     78.2       29     1012     0.00        2     13.2
    10/22/2014 17:45      2.2      280      5.2      295     77.1     78.3     76.3       35     1012     0.00        0     13.2
    10/22/2014 18:00      1.2      257      3.3      251     75.5     76.4     74.6       39     1012     0.00        0     13.2
    10/22/2014 18:15      0.0      267      1.2      220     74.1     74.8     73.6       42     1012     0.00        0     13.2
    10/22/2014 18:30      0.4      282      2.5      314     73.2     73.8     72.4       44     1012     0.00        0     13.2
    10/22/2014 18:45      0.5      270      3.4      265     72.0     72.5     71.6       46     1012     0.00        0     13.2
    10/22/2014 19:00      0.0        0      0.0      177     71.3     71.8     71.0       47     1013     0.00        0     13.2
    10/22/2014 19:15      0.3      139      2.1      159     70.8     71.3     70.1       49     1013     0.00        0     13.3
    10/22/2014 19:30      0.5      141      2.1      153     70.1     70.5     69.8       47     1013     0.00        0     13.3
    10/22/2014 19:45      0.1      189      1.8      190     69.9     70.3     69.3       48     1013     0.00        0     13.3
    10/22/2014 20:00      0.0        0      0.0      219     68.9     69.5     68.5       49     1013     0.00        0     13.3
    10/22/2014 20:15      0.0      353      0.8      353     68.6     68.8     68.3       50     1013     0.00        0     13.3
    10/22/2014 20:30      0.0        0      0.0       12     67.7     68.6     66.8       53     1013     0.00        0     13.3
    10/22/2014 20:45      0.0        0      0.0      136     66.5     67.2     65.6       56     1013     0.00        0     13.3
    10/22/2014 21:00      0.2      346      1.4      346     65.8     66.4     65.4       55     1013     0.00        0     13.3
    10/22/2014 21:15      0.1      342      1.4      344     66.2     66.5     65.9       53     1014     0.00        0     13.3
    10/22/2014 21:30      0.0        0      0.0      349     65.8     66.2     65.1       55     1014     0.00        0     13.3
    10/22/2014 21:45      0.0        0      0.0       16     64.9     65.3     64.6       53     1014     0.00        0     13.3
    10/22/2014 22:00      0.0        0      0.0      335     64.2     64.8     63.6       57     1014     0.00        0     13.3
    10/22/2014 22:15      0.0        0      0.0      128     63.5     63.9     63.1       58     1014     0.00        0     13.4
    10/22/2014 22:30      0.0        0      0.0      312     63.4     63.7     63.1       57     1014     0.00        0     13.4
    10/22/2014 22:45      0.0      330      0.7      331     63.5     63.7     63.3       56     1014     0.00        0     13.4
    10/22/2014 23:00      0.0        0      0.0       88     62.8     63.4     62.3       57     1014     0.00        0     13.4
    10/22/2014 23:15      0.1      349      1.3      346     62.6     62.8     62.4       57     1014     0.00        0     13.4
    10/22/2014 23:30      0.1      346      0.7      349     62.5     62.8     61.8       58     1014     0.00        0     13.4
    10/22/2014 23:45      0.1      332      0.7      328     62.3     62.6     61.9       57     1014     0.00        0     13.4
    10/23/2014 00:00      0.0        0      0.0      322     61.7     62.2     61.0       60     1014     0.00        0     13.4
    10/23/2014 00:15      0.5      332      1.1      334     60.9     61.3     60.4       59     1014     0.00        0     13.4
    10/23/2014 00:30      0.4      333      1.1      334     61.1     61.5     60.5       61     1014     0.00        0     13.4
    10/23/2014 00:45      0.0        0      0.0      334     59.9     60.6     59.6       63     1014     0.00        0     13.4
    10/23/2014 01:00      0.4      329      2.0      332     59.9     60.3     59.5       63     1014     0.00        0     13.4
    10/23/2014 01:15      0.1      341      1.3      326     60.3     60.5     60.0       62     1014     0.00        0     13.4
    10/23/2014 01:30      0.9      341      1.8      340     60.3     60.8     59.7       62     1014     0.00        0     13.4
    10/23/2014 01:45      0.0        0      0.0      348     59.3     59.9     58.7       64     1013     0.00        0     13.4
    10/23/2014 02:00      0.0        0      0.0       13     58.9     59.2     58.6       63     1013     0.00        0     13.4
    10/23/2014 02:15      0.1      302      0.8      290     58.4     59.0     58.0       65     1013     0.00        0     13.4
    10/23/2014 02:30      0.1      319      0.8      319     58.4     58.6     58.1       64     1013     0.00        0     13.4
    10/23/2014 02:45      0.0        0      0.0      126     57.4     58.1     57.1       67     1013     0.00        0     13.4
    10/23/2014 03:00      0.4      323      1.8      332     57.4     57.8     57.1       65     1013     0.00        0     13.4
    10/23/2014 03:15      0.2      332      1.5      328     57.8     58.1     57.6       64     1013     0.00        0     13.4
    10/23/2014 03:30      0.4      349      1.2      347     57.9     58.1     57.8       64     1013     0.00        0     13.5
    10/23/2014 03:45      0.1      355      1.1        0     58.0     58.3     57.7       62     1013     0.00        0     13.4
    10/23/2014 04:00      0.0        0      0.0      352     57.8     58.1     57.4       64     1013     0.00        0     13.5
    10/23/2014 04:15      0.0        0      0.0      352     57.2     57.6     56.5       67     1013     0.00        0     13.5
    10/23/2014 04:30      0.2      335      1.3      334     56.6     57.0     56.2       67     1013     0.00        0     13.5
    10/23/2014 04:45      0.3      338      1.4      340     57.0     57.3     56.7       66     1013     0.00        0     13.5
    10/23/2014 05:00      0.1      348      1.1      349     56.5     57.0     56.1       66     1013     0.00        0     13.5
    10/23/2014 05:15      0.2      344      1.2      343     56.3     56.6     56.1       66     1013     0.00        0     13.5
    10/23/2014 05:30      0.8      341      1.8      339     56.7     57.4     56.2       64     1013     0.00        0     13.5
    10/23/2014 05:45      0.7      345      1.8      329     57.1     57.5     56.7       63     1013     0.00        0     13.5
    10/23/2014 06:00      0.7      345      1.8      336     57.4     58.3     56.9       62     1013     0.00        2     13.5
    10/23/2014 06:15      0.6      334      1.7      334     58.1     58.6     57.6       63     1013     0.00        8     13.5
    10/23/2014 06:30      0.3      340      1.7      341     57.6     57.8     57.3       63     1014     0.00       17     13.5